CheckWX is a tool to help pilots better visualize weather data.  It is not intended as a substitute for an official pre-flight weather briefing.

14:11:59 UTC

KAVL TAF
Asheville Regional Airport
Asheville, North Carolina, USA
KAVL 201128Z 2012/2112 34004KT 6SM BR SCT004 FM201500 VRB03KT P6SM VCSH FEW045 PROB30 2021/2024 4SM TSRA OVC025CB FM210000 17003KT P6SM BKN100 PROB30 2100/2103 4SM -SHRA OVC025 FM210300 VRB02KT 5SM BR BKN100 FM210600 VRB02KT 2SM BR BKN060 FM210700 VRB02KT 1SM BR BKN003

Aug-20@
12:00 UTC

Aug-20 @ 12:00 UTC

Aug-20@
15:00 UTC

Aug-20 @ 15:00 UTC

KAVL 201128Z 2012/2112 34004KT 6SM BR SCT004
Wind
  • 340° at 4 KTS
Conditions
Mist
Cloud Levels
  • Scattered at 400' AGL

Aug-20@
15:00 UTC

Aug-20 @ 15:00 UTC

Aug-21@
00:00 UTC

Aug-21 @ 00:00 UTC

FM201500 VRB03KT P6SM VCSH FEW045

From

From Standard forecast or significant change

Wind
  • Variable at 3 KTS
Cloud Levels
  • Few at 4,500' AGL

Aug-20@
21:00 UTC

Aug-20 @ 21:00 UTC

Aug-21@
00:00 UTC

Aug-21 @ 00:00 UTC

PROB30 2021/2024 4SM TSRA OVC025CB

Probable - 30% Likelihood

Probable - 30% Likelihood during this time.

Conditions
Thunderstorm, Rain
Cloud Levels
  • Overcast at 2,500' AGL

Aug-21@
00:00 UTC

Aug-21 @ 00:00 UTC

Aug-21@
03:00 UTC

Aug-21 @ 03:00 UTC

FM210000 17003KT P6SM BKN100

From

From Standard forecast or significant change

Wind
  • 170° at 3 KTS
Cloud Levels
  • Broken at 10,000' AGL

Aug-21@
00:00 UTC

Aug-21 @ 00:00 UTC

Aug-21@
03:00 UTC

Aug-21 @ 03:00 UTC

PROB30 2100/2103 4SM -SHRA OVC025

Probable - 30% Likelihood

Probable - 30% Likelihood during this time.

Conditions
Light Rain
Cloud Levels
  • Overcast at 2,500' AGL

Aug-21@
03:00 UTC

Aug-21 @ 03:00 UTC

Aug-21@
06:00 UTC

Aug-21 @ 06:00 UTC

FM210300 VRB02KT 5SM BR BKN100

From

From Standard forecast or significant change

Wind
  • Variable at 2 KTS
Conditions
Mist
Cloud Levels
  • Broken at 10,000' AGL

Aug-21@
06:00 UTC

Aug-21 @ 06:00 UTC

Aug-21@
07:00 UTC

Aug-21 @ 07:00 UTC

FM210600 VRB02KT 2SM BR BKN060

From

From Standard forecast or significant change

Wind
  • Variable at 2 KTS
Conditions
Mist
Cloud Levels
  • Broken at 6,000' AGL

Aug-21@
07:00 UTC

Aug-21 @ 07:00 UTC

Aug-21@
12:00 UTC

Aug-21 @ 12:00 UTC

FM210700 VRB02KT 1SM BR BKN003

From

From Standard forecast or significant change

Wind
  • Variable at 2 KTS
Conditions
Mist
Cloud Levels
  • Broken at 300' AGL